Elizabeth Ann — WCZ5348 — position and weather

sailwx.info

Track history (hours):
 
Tides and Currents Weather Stations Pressure Air Temp Water Temp Dewpoint Dewpoint Depression Visibility Wind Speed Wind Dir Waves Ship Positions

Elizabeth Ann

Owner: ATLANTIC GULF TOWING LLC, Chesapeake, VA. More information available from US FCC via Universal Licensing System and Coast Guard Vessel Documentation Center.

Last reported at 2017-May-18 04:32 UTC. Time now 2017-May-23 12:44 UTC.
Position N 33°55' W 078°01'.

Length 32 m; draft 4 m.

Type: Tug. MMSI: 366773150.

Date/timePositionNaut miles runAvg speedWind from/ knotsBaromVisibWave heightAir tempDewpointWater temp
2017-May-18 04:32N 33°55' W 078°01'0 3.2
2017-May-18 04:30N 33°55' W 078°01'1 3.0
2017-May-18 04:00N 33°56' W 077°59'2 2.9
2017-May-18 03:26N 33°57' W 077°58'7 2.6
2017-May-18 00:50N 33°51' W 078°02'2 5.0
2017-May-18 00:31N 33°50' W 078°03'1 2.4
2017-May-17 23:55N 33°49' W 078°04'1 3.5
2017-May-17 23:30N 33°48' W 078°04'2 3.1
2017-May-17 23:01N 33°46' W 078°03'2 3.2
2017-May-17 22:29N 33°48' W 078°03'8 4.3
2017-May-17 20:35N 33°56' W 077°59'15 2.6
2017-May-17 14:52N 33°41' W 078°05'7 3.1
2017-May-17 12:40N 33°48' W 078°05'1 3.6
2017-May-17 12:17N 33°47' W 078°04'1 3.8
2017-May-17 11:59N 33°46' W 078°04'2 4.0
2017-May-17 11:30N 33°44' W 078°02'15 4.3
2017-May-17 07:56N 33°59' W 077°57'2 1.1
2017-May-17 06:10N 33°57' W 077°58'2 5.4
2017-May-17 05:43N 33°55' W 077°60'7 5.4
2017-May-17 04:22N 33°49' W 078°04'1 3.0
2017-May-17 04:00N 33°48' W 078°05'0 0.0
2017-May-17 03:01N 33°48' W 078°05'0 0.0
2017-May-17 03:00N 33°48' W 078°05'0 0.0
2017-May-17 02:18N 33°48' W 078°05'0 0.0
2017-May-17 01:36N 33°48' W 078°05'0 0.1
2017-May-17 01:28N 33°48' W 078°05'0 0.0
2017-May-17 01:00N 33°48' W 078°05'0 0.0
2017-May-17 00:30N 33°48' W 078°05'1 0.0
2017-May-16 06:17N 33°49' W 078°05'1 3.2
2017-May-16 06:00N 33°48' W 078°05'2 2.9
2017-May-16 05:17N 33°46' W 078°04'1 2.8
2017-May-16 04:49N 33°45' W 078°03'1 2.8
2017-May-16 04:26N 33°44' W 078°02'1 2.8
2017-May-16 04:01N 33°43' W 078°01'2 3.3
2017-May-16 03:31N 33°45' W 078°02'3 5.0
2017-May-16 03:00N 33°47' W 078°03'  
Track history (hours):
 
Tides and Currents Weather Stations Pressure Air Temp Water Temp Dewpoint Dewpoint Depression Visibility Wind Speed Wind Dir Waves Ship Positions

Elizabeth Ann

Owner: ATLANTIC GULF TOWING LLC, Chesapeake, VA. More information available from US FCC via Universal Licensing System and Coast Guard Vessel Documentation Center.

Last reported at 2017-May-18 04:32 UTC. Time now 2017-May-23 12:44 UTC.
Position N 33°55' W 078°01'.

Length 32 m; draft 4 m.

Type: Tug. MMSI: 366773150.

Date/timePositionNaut miles runAvg speedWind from/ knotsBaromVisibWave heightAir tempDewpointWater temp
2017-May-18 04:32N 33°55' W 078°01'0 3.2
2017-May-18 04:30N 33°55' W 078°01'1 3.0
2017-May-18 04:00N 33°56' W 077°59'2 2.9
2017-May-18 03:26N 33°57' W 077°58'7 2.6
2017-May-18 00:50N 33°51' W 078°02'2 5.0
2017-May-18 00:31N 33°50' W 078°03'1 2.4
2017-May-17 23:55N 33°49' W 078°04'1 3.5
2017-May-17 23:30N 33°48' W 078°04'2 3.1
2017-May-17 23:01N 33°46' W 078°03'2 3.2
2017-May-17 22:29N 33°48' W 078°03'8 4.3
2017-May-17 20:35N 33°56' W 077°59'15 2.6
2017-May-17 14:52N 33°41' W 078°05'7 3.1
2017-May-17 12:40N 33°48' W 078°05'1 3.6
2017-May-17 12:17N 33°47' W 078°04'1 3.8
2017-May-17 11:59N 33°46' W 078°04'2 4.0
2017-May-17 11:30N 33°44' W 078°02'15 4.3
2017-May-17 07:56N 33°59' W 077°57'2 1.1
2017-May-17 06:10N 33°57' W 077°58'2 5.4
2017-May-17 05:43N 33°55' W 077°60'7 5.4
2017-May-17 04:22N 33°49' W 078°04'1 3.0
2017-May-17 04:00N 33°48' W 078°05'0 0.0
2017-May-17 03:01N 33°48' W 078°05'0 0.0
2017-May-17 03:00N 33°48' W 078°05'0 0.0
2017-May-17 02:18N 33°48' W 078°05'0 0.0
2017-May-17 01:36N 33°48' W 078°05'0 0.1
2017-May-17 01:28N 33°48' W 078°05'0 0.0
2017-May-17 01:00N 33°48' W 078°05'0 0.0
2017-May-17 00:30N 33°48' W 078°05'1 0.0
2017-May-16 06:17N 33°49' W 078°05'1 3.2
2017-May-16 06:00N 33°48' W 078°05'2 2.9
2017-May-16 05:17N 33°46' W 078°04'1 2.8
2017-May-16 04:49N 33°45' W 078°03'1 2.8
2017-May-16 04:26N 33°44' W 078°02'1 2.8
2017-May-16 04:01N 33°43' W 078°01'2 3.3
2017-May-16 03:31N 33°45' W 078°02'3 5.0
2017-May-16 03:00N 33°47' W 078°03'  

Dump ship's entire track history